createdAt,value
2022-12-20T00:02:18.865Z,101312.91
2022-12-20T00:04:45.269Z,101307.81
2022-12-20T00:07:11.689Z,101304.84
2022-12-20T00:09:38.124Z,101300.56
2022-12-20T00:12:04.506Z,101303.31
2022-12-20T00:14:30.863Z,101300.44
2022-12-20T00:16:57.200Z,101303.31
2022-12-20T00:19:23.581Z,101301.09
2022-12-20T00:21:49.934Z,101298.97
2022-12-20T00:24:19.377Z,101285.97
2022-12-20T00:26:53.020Z,101280.88
2022-12-20T00:29:19.334Z,101277.22
2022-12-20T00:31:45.785Z,101270.72
2022-12-20T00:34:12.474Z,101270.72
2022-12-20T00:36:39.316Z,101280.09
2022-12-20T00:39:07.424Z,101284.38
2022-12-20T00:41:33.899Z,101285.75
2022-12-20T00:44:00.280Z,101270.63
2022-12-20T00:46:26.957Z,101282.88
2022-12-20T00:48:53.597Z,101287.13
2022-12-20T00:51:20.887Z,101285.66
2022-12-20T00:53:47.214Z,101269.13
2022-12-20T00:56:13.568Z,101267.63
2022-12-20T00:58:40.259Z,101274.03
2022-12-20T01:01:07.436Z,101269.78
2022-12-20T01:03:34.150Z,101269.88
2022-12-20T01:06:01.919Z,101265.59
2022-12-20T01:08:28.737Z,101272.88
2022-12-20T01:11:01.552Z,101273.59
2022-12-20T01:13:27.869Z,101280.22
2022-12-20T01:15:54.272Z,101283.09
2022-12-20T01:18:20.653Z,101277.34
2022-12-20T01:20:47.152Z,101275.22
2022-12-20T01:23:13.489Z,101286.72
2022-12-20T01:25:39.835Z,101281.72
2022-12-20T01:28:06.169Z,101277.34
2022-12-20T01:30:32.604Z,101275.84
2022-12-20T01:32:58.932Z,101281.59
2022-12-20T01:35:25.285Z,101274.34
2022-12-20T01:37:51.652Z,101271.47
2022-12-20T01:40:18.026Z,101265.72
2022-12-20T01:42:44.371Z,101267.13
2022-12-20T01:45:13.307Z,101261.38
2022-12-20T01:47:39.837Z,101259.84
2022-12-20T01:50:06.637Z,101267.84
2022-12-20T01:52:34.272Z,101277.88
2022-12-20T01:55:02.310Z,101264.13
2022-12-20T01:57:36.815Z,101262.66
2022-12-20T02:00:04.251Z,101269.66
2022-12-20T02:02:40.212Z,101261.16
2022-12-20T02:05:06.802Z,101256.78
2022-12-20T02:07:33.492Z,101264.66
2022-12-20T02:09:59.912Z,101266.78
2022-12-20T02:12:26.727Z,101262.44
2022-12-20T02:14:56.746Z,101260.91
2022-12-20T02:17:27.397Z,101268.19
2022-12-20T02:19:53.646Z,101266.56
2022-12-20T02:22:26.538Z,101260.06
2022-12-20T02:24:59.357Z,101264.44
2022-12-20T02:27:34.185Z,101260.72
2022-12-20T02:30:03.637Z,101265.06
2022-12-20T02:32:37.402Z,101249.22
2022-12-20T02:35:04.703Z,101246.34
2022-12-20T02:37:31.367Z,101236.09
2022-12-20T02:39:59.005Z,101247.59
2022-12-20T02:42:25.492Z,101238.97
2022-12-20T02:45:15.237Z,101232.50
2022-12-20T02:47:48.783Z,101225.25
2022-12-20T02:50:17.176Z,101213.00
2022-12-20T02:52:43.524Z,101212.25
2022-12-20T02:55:10.628Z,101202.91
2022-12-20T02:57:37.512Z,101206.50
2022-12-20T03:00:05.701Z,101207.25
2022-12-20T03:02:52.459Z,101204.25
2022-12-20T03:05:21.393Z,101198.50
2022-12-20T03:07:48.076Z,101192.03
2022-12-20T03:10:14.610Z,101206.41
2022-12-20T03:12:41.015Z,101208.53
2022-12-20T03:15:07.460Z,101208.53
2022-12-20T03:17:33.919Z,101199.16
2022-12-20T03:20:00.286Z,101204.19
2022-12-20T03:22:27.067Z,101207.06
2022-12-20T03:24:53.430Z,101220.03
2022-12-20T03:27:19.773Z,101218.00
2022-12-20T03:29:46.625Z,101214.50
2022-12-20T03:32:12.979Z,101207.34
2022-12-20T03:34:42.609Z,101216.72
2022-12-20T03:37:10.674Z,101226.13
2022-12-20T03:39:37.049Z,101226.13
2022-12-20T03:42:04.109Z,101221.84
2022-12-20T03:44:30.719Z,101221.09
2022-12-20T03:46:57.303Z,101206.72
2022-12-20T03:49:24.202Z,101198.97
2022-12-20T03:51:51.516Z,101193.22
2022-12-20T03:54:18.101Z,101217.69
2022-12-20T03:57:04.002Z,101213.44
2022-12-20T03:59:30.953Z,101220.66
2022-12-20T04:01:58.335Z,101227.19
2022-12-20T04:04:27.917Z,101215.69
2022-12-20T04:06:54.241Z,101210.69
2022-12-20T04:09:20.642Z,101206.28
2022-12-20T04:11:51.905Z,101198.44
2022-12-20T04:14:18.273Z,101194.78
2022-12-20T04:16:44.676Z,101181.94
2022-12-20T04:19:11.976Z,101202.06
2022-12-20T04:21:42.672Z,101189.16
2022-12-20T04:24:09.058Z,101202.16
2022-12-20T04:26:51.951Z,101203.63
2022-12-20T04:29:18.305Z,101192.13
2022-12-20T04:31:45.821Z,101192.88
2022-12-20T04:34:12.635Z,101205.16
2022-12-20T04:36:39.106Z,101178.50
2022-12-20T04:39:10.218Z,101180.63
2022-12-20T04:41:46.697Z,101177.75
2022-12-20T04:44:13.737Z,101179.16
2022-12-20T04:46:40.201Z,101183.50
2022-12-20T04:49:11.342Z,101191.41
2022-12-20T04:51:40.175Z,101177.75
2022-12-20T04:54:06.541Z,101181.38
2022-12-20T04:56:41.886Z,101182.88
2022-12-20T04:59:11.534Z,101189.38
2022-12-20T05:01:40.126Z,101186.59
2022-12-20T05:04:06.702Z,101189.47
2022-12-20T05:06:36.273Z,101195.22
2022-12-20T05:09:02.642Z,101189.47
2022-12-20T05:11:30.425Z,101180.75
2022-12-20T05:13:57.216Z,101173.59
2022-12-20T05:16:23.627Z,101163.50
2022-12-20T05:18:52.429Z,101173.59
2022-12-20T05:21:37.570Z,101167.13
2022-12-20T05:24:23.986Z,101176.47
2022-12-20T05:26:59.305Z,101170.09
2022-12-20T05:29:26.622Z,101155.09
2022-12-20T05:31:53.941Z,101150.81
2022-12-20T05:34:21.047Z,101163.81
2022-12-20T05:36:52.131Z,101169.56
2022-12-20T05:39:19.957Z,101168.06
2022-12-20T05:41:47.889Z,101163.81
2022-12-20T05:44:14.658Z,101156.56
2022-12-20T05:46:44.715Z,101160.84
2022-12-20T05:49:15.719Z,101149.34
2022-12-20T05:51:42.558Z,101137.84
2022-12-20T05:54:18.261Z,101144.31
2022-12-20T05:56:51.404Z,101150.19
2022-12-20T05:59:22.507Z,101158.06
2022-12-20T06:01:48.918Z,101166.81
2022-12-20T06:04:15.870Z,101155.31
2022-12-20T06:06:43.064Z,101159.56
2022-12-20T06:09:10.378Z,101172.56
2022-12-20T06:11:44.353Z,101173.63
2022-12-20T06:14:13.549Z,101171.47
2022-12-20T06:16:45.180Z,101180.84
2022-12-20T06:19:36.418Z,101176.38
2022-12-20T06:22:15.304Z,101170.16
2022-12-20T06:24:48.561Z,101158.88
2022-12-20T06:27:18.610Z,101157.56
2022-12-20T06:29:52.087Z,101163.16
2022-12-20T06:32:21.684Z,101161.13
2022-12-20T06:34:48.864Z,101161.84
2022-12-20T06:37:16.784Z,101173.06
2022-12-20T06:39:43.223Z,101169.59
2022-12-20T06:42:09.634Z,101173.53
2022-12-20T06:44:38.446Z,101173.69
2022-12-20T06:47:04.821Z,101173.38
2022-12-20T06:49:31.205Z,101182.97
2022-12-20T06:51:58.390Z,101187.44
2022-12-20T06:54:33.248Z,101188.00
2022-12-20T06:56:59.599Z,101172.53
2022-12-20T06:59:26.578Z,101167.00
2022-12-20T07:01:55.694Z,101175.53
2022-12-20T07:04:22.172Z,101175.25
2022-12-20T07:06:48.503Z,101179.28
2022-12-20T07:09:14.832Z,101178.31
2022-12-20T07:11:43.243Z,101188.28
2022-12-20T07:14:09.950Z,101185.41
2022-12-20T07:16:37.193Z,101190.06
2022-12-20T07:19:03.570Z,101194.59
2022-12-20T07:21:29.878Z,101188.94
2022-12-20T07:23:56.217Z,101205.03
2022-12-20T07:26:22.590Z,101202.91
2022-12-20T07:28:49.407Z,101201.69
2022-12-20T07:31:15.738Z,101199.28
2022-12-20T07:33:42.107Z,101206.50
2022-12-20T07:36:10.277Z,101205.59
2022-12-20T07:38:36.606Z,101209.41
2022-12-20T07:41:09.831Z,101218.44
2022-12-20T07:43:36.198Z,101209.03
2022-12-20T07:46:03.694Z,101219.91
2022-12-20T07:48:30.118Z,101218.53
2022-12-20T07:50:58.107Z,101214.88
2022-12-20T07:53:24.489Z,101219.34
2022-12-20T07:55:50.833Z,101205.69
2022-12-20T07:58:17.391Z,101202.81
2022-12-20T08:00:43.735Z,101206.53
2022-12-20T08:03:14.079Z,101207.66
2022-12-20T08:05:42.923Z,101209.50
2022-12-20T08:08:09.259Z,101215.47
2022-12-20T08:10:36.652Z,101217.59
2022-12-20T08:13:03.388Z,101216.75
2022-12-20T08:15:29.776Z,101209.59
2022-12-20T08:17:56.165Z,101212.56
2022-12-20T08:20:22.539Z,101203.19
2022-12-20T08:22:48.896Z,101195.38
2022-12-20T08:25:15.219Z,101205.59
2022-12-20T08:27:41.591Z,101203.75
2022-12-20T08:30:09.073Z,101199.25
2022-12-20T08:32:36.315Z,101184.50
2022-12-20T08:35:03.349Z,101187.72
2022-12-20T08:37:29.723Z,101194.41
2022-12-20T08:39:56.051Z,101197.19
2022-12-20T08:42:22.423Z,101188.97
2022-12-20T08:44:48.755Z,101188.34
2022-12-20T08:47:15.460Z,101189.50
2022-12-20T08:49:47.432Z,101184.56
2022-12-20T08:52:14.305Z,101183.69
2022-12-20T08:54:40.637Z,101197.88
2022-12-20T08:57:07.182Z,101189.97
2022-12-20T08:59:33.534Z,101182.00
2022-12-20T09:02:00.067Z,101177.63
2022-12-20T09:04:26.546Z,101183.38
2022-12-20T09:06:52.879Z,101189.69
2022-12-20T09:09:19.320Z,101186.00
2022-12-20T09:11:45.703Z,101187.38
2022-12-20T09:14:12.061Z,101177.25
2022-12-20T09:16:38.397Z,101172.22
2022-12-20T09:19:06.305Z,101174.94
2022-12-20T09:21:32.981Z,101177.03
2022-12-20T09:23:59.328Z,101185.31
2022-12-20T09:26:25.720Z,101176.22
2022-12-20T09:28:52.085Z,101175.66
2022-12-20T09:31:19.356Z,101169.34
2022-12-20T09:33:45.746Z,101173.69
2022-12-20T09:36:12.736Z,101179.56
2022-12-20T09:38:39.108Z,101175.63
2022-12-20T09:41:05.829Z,101169.16
2022-12-20T09:43:32.248Z,101173.88
2022-12-20T09:46:00.149Z,101176.66
2022-12-20T09:48:29.001Z,101179.75
2022-12-20T09:51:03.275Z,101175.38
2022-12-20T09:53:32.711Z,101180.00
2022-12-20T09:56:00.361Z,101167.09
2022-12-20T09:58:33.619Z,101179.91
2022-12-20T10:00:59.993Z,101179.50
2022-12-20T10:03:27.808Z,101180.06
2022-12-20T10:05:55.218Z,101167.03
2022-12-20T10:08:29.856Z,101171.78
2022-12-20T10:10:56.660Z,101164.31
2022-12-20T10:13:37.810Z,101175.94
2022-12-20T10:16:11.488Z,101174.91
2022-12-20T10:18:56.759Z,101169.38
2022-12-20T10:21:29.291Z,101153.31
2022-12-20T10:24:01.466Z,101159.69
2022-12-20T10:26:27.903Z,101143.81
2022-12-20T10:28:54.796Z,101125.78
2022-12-20T10:31:21.335Z,101122.91
2022-12-20T10:33:47.768Z,101124.50
2022-12-20T10:36:29.277Z,101112.31
2022-12-20T10:38:56.874Z,101108.69
2022-12-20T10:41:24.279Z,101107.31
2022-12-20T10:44:00.537Z,101107.31
2022-12-20T10:46:37.868Z,101111.47
2022-12-20T10:49:23.446Z,101094.19
2022-12-20T10:51:53.412Z,101093.44
2022-12-20T10:54:23.862Z,101073.94
2022-12-20T10:56:57.537Z,101078.22
2022-12-20T10:59:28.390Z,101075.25
2022-12-20T11:01:54.797Z,101071.91
2022-12-20T11:04:30.507Z,101068.75
2022-12-20T11:07:01.918Z,101051.81
2022-12-20T11:09:35.895Z,101051.19
2022-12-20T11:12:06.517Z,101046.44
2022-12-20T11:14:38.783Z,101049.78
2022-12-20T11:17:24.736Z,101047.56
2022-12-20T11:20:09.885Z,101048.31
2022-12-20T11:22:40.175Z,101031.41
2022-12-20T11:25:07.070Z,101027.84
2022-12-20T11:27:48.702Z,101036.41
2022-12-20T11:30:21.551Z,101041.44
2022-12-20T11:32:55.263Z,101032.31
2022-12-20T11:35:25.392Z,101030.09
2022-12-20T11:38:09.769Z,101030.28
2022-12-20T11:40:36.410Z,101020.25
2022-12-20T11:43:12.785Z,101023.94
2022-12-20T11:45:42.252Z,101022.09
2022-12-20T11:48:10.658Z,101015.88
2022-12-20T11:50:37.066Z,101024.13
2022-12-20T11:53:23.632Z,101005.28
2022-12-20T11:55:50.880Z,101008.69
2022-12-20T11:58:34.671Z,101000.88
2022-12-20T12:01:03.457Z,101006.91
2022-12-20T12:03:36.704Z,101002.78
2022-12-20T12:06:10.838Z,100997.28
2022-12-20T12:09:01.718Z,101002.66
2022-12-20T12:12:05.157Z,100996.25
2022-12-20T12:14:17.085Z,100989.34
2022-12-20T12:16:44.993Z,100980.59
2022-12-20T12:19:11.605Z,100987.88
2022-12-20T12:21:39.273Z,100987.41
2022-12-20T12:24:05.550Z,100985.44
2022-12-20T12:26:32.516Z,100982.09
2022-12-20T12:28:59.506Z,100979.22
2022-12-20T12:31:28.513Z,100966.56
2022-12-20T12:34:04.122Z,100970.28
2022-12-20T12:36:33.184Z,100968.00
2022-12-20T12:39:19.853Z,100967.66
2022-12-20T12:41:53.694Z,100975.25
2022-12-20T12:44:27.404Z,100966.22
2022-12-20T12:46:58.957Z,100946.25
2022-12-20T12:49:25.457Z,100955.66
2022-12-20T12:52:00.230Z,100954.97
2022-12-20T12:54:29.646Z,100951.38
2022-12-20T12:57:21.951Z,100948.06
2022-12-20T12:59:48.876Z,100948.06
2022-12-20T13:02:15.693Z,100949.94
2022-12-20T13:05:07.050Z,100947.69
2022-12-20T13:07:33.313Z,100944.47
2022-12-20T13:10:00.232Z,100958.88
2022-12-20T13:12:38.790Z,100952.28
2022-12-20T13:15:20.272Z,100957.22
2022-12-20T13:17:55.525Z,100953.66
2022-12-20T13:20:28.212Z,100953.66
2022-12-20T13:23:09.226Z,100951.69
2022-12-20T13:25:41.925Z,100951.41
2022-12-20T13:28:23.457Z,100953.09
2022-12-20T13:31:01.924Z,100946.28
2022-12-20T13:33:41.926Z,100933.47
2022-12-20T13:36:11.256Z,100929.13
2022-12-20T13:38:44.794Z,100930.75
2022-12-20T13:41:23.041Z,100935.19
2022-12-20T13:43:49.620Z,100932.06
2022-12-20T13:46:24.389Z,100929.44
2022-12-20T13:48:51.631Z,100936.03
2022-12-20T13:51:22.048Z,100937.09
2022-12-20T13:53:54.382Z,100933.69
2022-12-20T13:56:33.246Z,100942.44
2022-12-20T13:59:03.416Z,100928.00
2022-12-20T14:01:31.233Z,100931.22
2022-12-20T14:03:58.236Z,100929.13
2022-12-20T14:06:27.151Z,100928.09
2022-12-20T14:08:53.759Z,100916.25
2022-12-20T14:11:23.949Z,100925.13
2022-12-20T14:13:54.375Z,100927.63
2022-12-20T14:16:20.749Z,100926.53
2022-12-20T14:19:05.686Z,100925.28
2022-12-20T14:21:34.204Z,100923.81
2022-12-20T14:24:00.786Z,100922.47
2022-12-20T14:26:27.607Z,100928.25
2022-12-20T14:28:56.847Z,100906.78
2022-12-20T14:31:33.422Z,100906.50
2022-12-20T14:34:02.974Z,100898.81
2022-12-20T14:36:31.581Z,100907.69
2022-12-20T14:38:58.199Z,100903.66
2022-12-20T14:41:28.960Z,100912.41
2022-12-20T14:43:55.617Z,100915.19
2022-12-20T14:46:22.633Z,100909.28
2022-12-20T14:49:07.646Z,100902.19
2022-12-20T14:51:36.618Z,100881.78
2022-12-20T14:54:02.972Z,100898.94
2022-12-20T14:56:32.149Z,100892.06
2022-12-20T14:59:03.474Z,100893.41
2022-12-20T15:01:33.884Z,100903.81
2022-12-20T15:04:03.549Z,100897.75
2022-12-20T15:06:31.328Z,100889.44
2022-12-20T15:09:00.302Z,100891.50
2022-12-20T15:11:26.655Z,100888.53
2022-12-20T15:13:53.371Z,100877.06
2022-12-20T15:16:19.914Z,100878.66
2022-12-20T15:19:02.347Z,100874.34
2022-12-20T15:21:29.517Z,100874.19
2022-12-20T15:23:55.995Z,100883.16
2022-12-20T15:26:23.075Z,100874.88
2022-12-20T15:28:55.510Z,100867.19
2022-12-20T15:31:30.791Z,100869.19
2022-12-20T15:33:59.105Z,100860.09
2022-12-20T15:36:28.752Z,100854.22
2022-12-20T15:39:13.338Z,100855.78
2022-12-20T15:41:41.809Z,100868.72
2022-12-20T15:44:14.309Z,100867.19
2022-12-20T15:46:40.760Z,100858.53
2022-12-20T15:49:09.372Z,100866.50
2022-12-20T15:51:36.218Z,100852.88
2022-12-20T15:54:04.346Z,100843.81
2022-12-20T15:56:30.719Z,100853.94
2022-12-20T15:58:57.067Z,100858.00
2022-12-20T16:01:32.108Z,100857.34
2022-12-20T16:04:02.629Z,100844.78
2022-12-20T16:06:29.040Z,100839.09
2022-12-20T16:08:55.381Z,100840.25
2022-12-20T16:11:22.717Z,100828.34
2022-12-20T16:13:49.046Z,100828.25
2022-12-20T16:16:19.004Z,100825.38
2022-12-20T16:18:45.463Z,100834.03
2022-12-20T16:21:18.798Z,100831.31
2022-12-20T16:23:45.426Z,100832.78
2022-12-20T16:26:14.803Z,100829.88
2022-12-20T16:28:41.180Z,100818.34
2022-12-20T16:31:27.848Z,100821.31
2022-12-20T16:33:54.342Z,100828.63
2022-12-20T16:36:20.688Z,100842.41
2022-12-20T16:38:47.076Z,100819.84
2022-12-20T16:41:20.285Z,100818.94
2022-12-20T16:43:46.616Z,100811.03
2022-12-20T16:46:13.587Z,100821.22
2022-12-20T16:48:40.273Z,100819.75
2022-12-20T16:51:20.861Z,100827.00
2022-12-20T16:54:17.121Z,100822.81
2022-12-20T16:56:33.508Z,100817.53
2022-12-20T16:59:18.385Z,100812.38
2022-12-20T17:01:45.478Z,100803.91
2022-12-20T17:04:15.539Z,100799.75
2022-12-20T17:06:42.244Z,100809.91
2022-12-20T17:11:55.811Z,100801.09
2022-12-20T17:14:25.004Z,100796.00
2022-12-20T17:16:51.469Z,100804.88
2022-12-20T17:19:17.914Z,100792.69
2022-12-20T17:24:29.045Z,100806.88
2022-12-20T17:26:55.403Z,100821.31
2022-12-20T17:29:21.728Z,100824.78
2022-12-20T17:31:48.146Z,100814.06
2022-12-20T17:34:18.760Z,100828.56
2022-12-20T17:36:45.332Z,100838.63
2022-12-20T17:39:11.660Z,100836.63
2022-12-20T17:41:38.019Z,100829.38
2022-12-20T17:44:04.501Z,100817.06
2022-12-20T17:46:30.877Z,100806.38
2022-12-20T17:49:00.021Z,100811.69
2022-12-20T17:51:30.217Z,100805.69
2022-12-20T17:53:57.028Z,100805.50
2022-12-20T17:56:27.072Z,100808.41
2022-12-20T17:58:53.891Z,100805.53
2022-12-20T18:01:26.012Z,100815.44
2022-12-20T18:04:03.527Z,100825.97
2022-12-20T18:06:31.241Z,100818.75
2022-12-20T18:08:57.579Z,100820.47
2022-12-20T18:11:24.406Z,100816.94
2022-12-20T18:13:51.491Z,100817.97
2022-12-20T18:16:19.383Z,100808.50
2022-12-20T18:18:45.952Z,100822.69
2022-12-20T18:21:13.977Z,100825.34
2022-12-20T18:23:40.310Z,100811.91
2022-12-20T18:26:13.173Z,100811.91
2022-12-20T18:28:39.678Z,100800.47
2022-12-20T18:31:06.532Z,100817.75
2022-12-20T18:33:32.845Z,100803.34
2022-12-20T18:36:12.712Z,100807.69
2022-12-20T18:38:40.751Z,100813.47
2022-12-20T18:41:07.637Z,100817.75
2022-12-20T18:43:34.256Z,100817.75
2022-12-20T18:46:04.206Z,100811.25
2022-12-20T18:48:30.806Z,100807.56
2022-12-20T18:50:57.174Z,100795.44
2022-12-20T18:53:23.506Z,100797.16
2022-12-20T18:55:55.908Z,100795.88
2022-12-20T18:58:24.949Z,100792.91
2022-12-20T19:01:00.903Z,100795.81
2022-12-20T19:03:27.363Z,100799.72
2022-12-20T19:05:54.469Z,100805.53
2022-12-20T19:08:24.165Z,100802.59
2022-12-20T19:10:51.031Z,100804.16
2022-12-20T19:13:20.148Z,100790.25
2022-12-20T19:15:47.228Z,100794.31
2022-12-20T19:18:14.213Z,100788.50
2022-12-20T19:20:40.562Z,100791.41
2022-12-20T19:23:06.891Z,100786.38
2022-12-20T19:25:33.261Z,100775.19
2022-12-20T19:27:59.594Z,100786.41
2022-12-20T19:30:25.969Z,100793.81
2022-12-20T19:32:52.325Z,100804.91
2022-12-20T19:35:53.417Z,100811.09
2022-12-20T19:38:06.846Z,100802.44
2022-12-20T19:40:33.216Z,100789.63
2022-12-20T19:42:59.559Z,100793.97
2022-12-20T19:45:25.882Z,100790.47
2022-12-20T19:47:54.008Z,100786.91
2022-12-20T19:50:20.528Z,100781.16
2022-12-20T19:52:46.864Z,100771.13
2022-12-20T19:55:13.183Z,100773.88
2022-12-20T19:57:39.524Z,100770.78
2022-12-20T20:00:08.552Z,100769.63
2022-12-20T20:02:38.286Z,100772.59
2022-12-20T20:05:09.525Z,100781.91
2022-12-20T20:07:40.899Z,100776.88
2022-12-20T20:10:07.593Z,100781.16
2022-12-20T20:12:34.081Z,100775.38
2022-12-20T20:15:00.403Z,100772.50
2022-12-20T20:17:29.668Z,100786.06
2022-12-20T20:19:55.982Z,100776.72
2022-12-20T20:22:23.212Z,100781.72
2022-12-20T20:24:49.756Z,100788.22
2022-12-20T20:27:19.113Z,100782.47
2022-12-20T20:29:45.451Z,100788.31
2022-12-20T20:32:11.773Z,100781.16
2022-12-20T20:34:38.209Z,100774.00
2022-12-20T20:37:04.539Z,100773.28
2022-12-20T20:39:30.853Z,100766.84
2022-12-20T20:41:57.201Z,100758.09
2022-12-20T20:44:23.873Z,100768.16
2022-12-20T20:46:50.258Z,100770.31
2022-12-20T20:49:18.034Z,100769.63
2022-12-20T20:51:44.599Z,100776.88
2022-12-20T20:54:10.928Z,100778.94
2022-12-20T20:56:37.257Z,100778.22
2022-12-20T20:59:08.114Z,100776.78
2022-12-20T21:01:37.271Z,100773.91
2022-12-20T21:04:04.161Z,100765.38
2022-12-20T21:06:40.073Z,100766.09
2022-12-20T21:09:07.671Z,100755.31
2022-12-20T21:11:34.448Z,100769.06
2022-12-20T21:14:00.826Z,100767.59
2022-12-20T21:16:27.404Z,100755.50
2022-12-20T21:18:54.631Z,100762.81
2022-12-20T21:21:21.008Z,100755.66
2022-12-20T21:23:47.361Z,100745.53
2022-12-20T21:26:13.869Z,100761.25
2022-12-20T21:28:40.628Z,100754.03
2022-12-20T21:31:09.132Z,100749.66
2022-12-20T21:33:35.868Z,100749.72
2022-12-20T21:36:02.796Z,100743.25
2022-12-20T21:38:29.159Z,100754.75
2022-12-20T21:41:05.223Z,100755.50
2022-12-20T21:43:31.552Z,100759.78
2022-12-20T21:45:57.865Z,100749.66
2022-12-20T21:48:24.253Z,100743.06
2022-12-20T21:51:00.519Z,100745.28
2022-12-20T21:53:27.182Z,100738.81
2022-12-20T21:55:55.455Z,100738.81
2022-12-20T21:58:22.050Z,100733.69
2022-12-20T22:00:54.087Z,100736.56
2022-12-20T22:03:21.209Z,100737.22
2022-12-20T22:05:48.747Z,100738.63
2022-12-20T22:08:18.046Z,100740.78
2022-12-20T22:10:44.819Z,100736.41
2022-12-20T22:13:11.276Z,100750.72
2022-12-20T22:15:37.733Z,100744.94
2022-12-20T22:18:07.095Z,100742.06
2022-12-20T22:20:33.837Z,100738.47
2022-12-20T22:23:00.175Z,100730.47
2022-12-20T22:25:26.535Z,100730.47
2022-12-20T22:27:52.897Z,100730.38
2022-12-20T22:30:19.231Z,100722.50
2022-12-20T22:32:45.580Z,100713.06
2022-12-20T22:35:11.890Z,100724.63
2022-12-20T22:37:38.260Z,100718.81
2022-12-20T22:40:05.066Z,100723.06
2022-12-20T22:42:40.598Z,100724.56
2022-12-20T22:45:07.489Z,100707.28
2022-12-20T22:47:34.041Z,100709.50
2022-12-20T22:50:00.382Z,100702.84
2022-12-20T22:52:26.730Z,100703.56
2022-12-20T22:54:53.063Z,100707.84
2022-12-20T22:57:19.388Z,100707.84
2022-12-20T22:59:45.701Z,100713.53
2022-12-20T23:02:12.331Z,100701.28
2022-12-20T23:04:39.342Z,100709.91
2022-12-20T23:07:07.260Z,100724.31
2022-12-20T23:09:36.383Z,100731.44
2022-12-20T23:12:21.171Z,100721.34
2022-12-20T23:15:25.595Z,100719.09
2022-12-20T23:17:51.943Z,100721.25
2022-12-20T23:20:40.720Z,100724.03
2022-12-20T23:23:10.112Z,100726.91
2022-12-20T23:25:36.424Z,100715.31
2022-12-20T23:28:05.474Z,100716.81
2022-12-20T23:30:31.936Z,100709.56
2022-12-20T23:32:58.276Z,100711.69
2022-12-20T23:35:25.674Z,100708.09
2022-12-20T23:37:52.532Z,100712.34
2022-12-20T23:40:18.873Z,100702.97
2022-12-20T23:42:45.224Z,100698.63
2022-12-20T23:45:11.644Z,100698.63
2022-12-20T23:47:38.048Z,100697.13
2022-12-20T23:50:04.495Z,100692.78
2022-12-20T23:52:30.837Z,100687.03
2022-12-20T23:54:57.708Z,100679.06
2022-12-20T23:57:24.059Z,100687.69
2022-12-20T23:59:53.243Z,100679.69
